Terminal Aerodrome Forecast
Issued by NWS Tuscon, AZ

Home | Current Version | Previous Version | Text Only | Print | Product List | Glossary On
Versions: 1 2 3 4 5 6 7 8 9 10 11 12
290
FTUS45 KTWC 101138
TAFDUG
TAF
KDUG 101138Z 1012/1112 VRB03KT P6SM SCT250
     FM101900 23007KT P6SM SKC
     FM110200 30006KT P6SM SCT250
     FM110800 VRB04KT P6SM BKN250=

USA.gov is the U.S. government's official web portal to all federal, state and local government web resources and services.